createdAt,value
2018-09-26T00:00:12.763Z,98.90
2018-09-26T00:00:48.644Z,99.00
2018-09-26T00:01:27.066Z,99.00
2018-09-26T00:02:04.899Z,98.90
2018-09-26T00:02:44.918Z,99.00
2018-09-26T00:03:23.430Z,99.00
2018-09-26T00:04:01.173Z,99.00
2018-09-26T00:04:36.650Z,99.00
2018-09-26T00:05:10.868Z,99.00
2018-09-26T00:05:44.128Z,99.00
2018-09-26T00:06:17.312Z,99.10
2018-09-26T00:06:50.957Z,99.00
2018-09-26T00:07:24.134Z,99.00
2018-09-26T00:07:57.418Z,99.00
2018-09-26T00:08:30.896Z,99.00
2018-09-26T00:09:07.271Z,99.00
2018-09-26T00:09:40.511Z,98.90
2018-09-26T00:10:13.746Z,98.90
2018-09-26T00:10:47.639Z,98.90
2018-09-26T00:11:20.864Z,98.90
2018-09-26T00:11:54.131Z,98.90
2018-09-26T00:12:27.278Z,98.90
2018-09-26T00:13:00.463Z,98.90
2018-09-26T00:13:33.679Z,98.80
2018-09-26T00:14:06.925Z,98.80
2018-09-26T00:14:40.260Z,98.70
2018-09-26T00:15:13.466Z,98.70
2018-09-26T00:15:46.996Z,98.60
2018-09-26T00:16:20.308Z,98.60
2018-09-26T00:16:53.686Z,98.60
2018-09-26T00:17:26.914Z,98.60
2018-09-26T00:18:00.179Z,98.60
2018-09-26T00:18:33.371Z,98.60
2018-09-26T00:19:06.662Z,98.60
2018-09-26T00:19:39.841Z,98.70
2018-09-26T00:20:12.994Z,98.70
2018-09-26T00:20:46.130Z,98.70
2018-09-26T00:21:19.459Z,98.70
2018-09-26T00:21:52.693Z,98.70
2018-09-26T00:22:25.919Z,98.70
2018-09-26T00:24:03.458Z,98.70
2018-09-26T00:24:36.693Z,98.70
2018-09-26T00:25:09.861Z,98.60
2018-09-26T00:25:43.032Z,98.60
2018-09-26T00:26:16.243Z,98.60
2018-09-26T00:26:49.438Z,98.60
2018-09-26T00:27:22.633Z,98.60
2018-09-26T00:27:55.910Z,98.70
2018-09-26T00:28:35.722Z,98.60
2018-09-26T00:29:08.966Z,98.70
2018-09-26T00:29:42.165Z,98.70
2018-09-26T00:30:15.494Z,98.70
2018-09-26T00:30:48.666Z,98.70
2018-09-26T00:31:21.822Z,98.80
2018-09-26T00:31:55.121Z,98.80
2018-09-26T00:32:28.577Z,98.90
2018-09-26T00:33:01.756Z,98.90
2018-09-26T00:33:34.974Z,98.90
2018-09-26T00:34:08.254Z,99.00
2018-09-26T00:34:41.550Z,98.90
2018-09-26T00:35:14.802Z,98.90
2018-09-26T00:35:48.542Z,98.90
2018-09-26T00:36:21.768Z,98.90
2018-09-26T00:36:55.285Z,99.00
2018-09-26T00:37:28.505Z,99.00
2018-09-26T00:38:01.679Z,99.00
2018-09-26T00:38:35.095Z,99.10
2018-09-26T00:39:08.287Z,99.20
2018-09-26T00:39:41.496Z,99.20
2018-09-26T00:40:14.674Z,99.20
2018-09-26T00:40:47.847Z,99.20
2018-09-26T00:41:21.304Z,99.20
2018-09-26T00:41:54.569Z,99.20
2018-09-26T00:42:27.748Z,99.10
2018-09-26T00:43:00.957Z,99.10
2018-09-26T00:43:34.146Z,99.10
2018-09-26T00:44:07.394Z,99.10
2018-09-26T00:44:40.561Z,99.10
2018-09-26T00:45:13.757Z,99.10
2018-09-26T00:45:46.958Z,99.20
2018-09-26T00:46:20.134Z,99.20
2018-09-26T00:46:53.364Z,99.20
2018-09-26T00:47:26.588Z,99.20
2018-09-26T00:47:59.823Z,99.20
2018-09-26T00:48:32.984Z,99.20
2018-09-26T00:49:06.334Z,99.20
2018-09-26T00:50:10.467Z,99.20
2018-09-26T00:50:43.649Z,99.20
2018-09-26T00:51:16.871Z,99.30
2018-09-26T00:51:50.282Z,99.30
2018-09-26T00:52:23.469Z,99.30
2018-09-26T00:52:56.832Z,99.30
2018-09-26T00:53:30.021Z,99.30
2018-09-26T00:54:03.378Z,99.30
2018-09-26T00:54:36.647Z,99.30
2018-09-26T00:55:09.858Z,99.30
2018-09-26T00:55:43.033Z,99.30
2018-09-26T00:56:16.241Z,99.30
2018-09-26T00:56:49.640Z,99.30
2018-09-26T00:57:22.842Z,99.30
2018-09-26T00:57:56.026Z,99.30
2018-09-26T00:58:29.751Z,99.30
2018-09-26T00:59:02.947Z,99.20
2018-09-26T00:59:36.282Z,99.30
2018-09-26T01:00:09.733Z,99.20
2018-09-26T01:00:42.890Z,99.20
2018-09-26T01:01:16.087Z,99.20
2018-09-26T01:01:49.284Z,99.20
2018-09-26T01:02:22.621Z,99.40
2018-09-26T01:02:56.116Z,99.10
2018-09-26T01:03:29.365Z,99.10
2018-09-26T01:04:02.676Z,99.20
2018-09-26T01:04:35.876Z,99.10
2018-09-26T01:05:09.086Z,99.10
2018-09-26T01:05:42.257Z,99.20
2018-09-26T01:06:15.487Z,99.10
2018-09-26T01:06:48.740Z,99.00
2018-09-26T01:07:21.911Z,99.10
2018-09-26T01:07:55.206Z,99.00
2018-09-26T01:08:28.442Z,99.00
2018-09-26T01:09:01.635Z,99.00
2018-09-26T01:09:34.820Z,99.10
2018-09-26T01:10:08.027Z,99.00
2018-09-26T01:10:41.242Z,99.10
2018-09-26T01:11:14.402Z,99.00
2018-09-26T01:11:47.582Z,99.00
2018-09-26T01:12:20.791Z,99.00
2018-09-26T01:12:54.046Z,99.00
2018-09-26T01:13:27.247Z,98.90
2018-09-26T01:14:00.437Z,98.90
2018-09-26T01:14:33.636Z,98.90
2018-09-26T01:15:06.895Z,98.90
2018-09-26T01:15:40.827Z,98.90
2018-09-26T01:16:14.025Z,99.00
2018-09-26T01:16:47.219Z,99.00
2018-09-26T01:17:20.468Z,99.00
2018-09-26T01:17:53.662Z,99.00
2018-09-26T01:18:27.363Z,99.00
2018-09-26T01:19:00.967Z,98.90
2018-09-26T01:19:34.151Z,98.80
2018-09-26T01:20:07.802Z,98.90
2018-09-26T01:20:42.627Z,98.90
2018-09-26T01:21:15.815Z,98.90
2018-09-26T01:21:48.986Z,98.90
2018-09-26T01:22:22.225Z,98.90
2018-09-26T01:22:55.465Z,99.10
2018-09-26T01:23:28.629Z,99.10
2018-09-26T01:24:01.798Z,99.20
2018-09-26T01:24:34.989Z,99.30
2018-09-26T01:25:08.198Z,99.20
2018-09-26T01:25:42.220Z,99.20
2018-09-26T01:26:15.404Z,99.20
2018-09-26T01:26:48.583Z,99.20
2018-09-26T01:27:22.373Z,99.10
2018-09-26T01:27:55.705Z,99.00
2018-09-26T01:28:28.894Z,99.00
2018-09-26T01:29:02.069Z,99.00
2018-09-26T01:29:35.249Z,98.90
2018-09-26T01:30:08.423Z,98.90
2018-09-26T01:30:41.614Z,98.90
2018-09-26T01:31:14.805Z,98.90
2018-09-26T01:31:47.969Z,98.90
2018-09-26T01:32:21.160Z,98.90
2018-09-26T01:32:54.383Z,98.90
2018-09-26T01:33:27.966Z,98.90
2018-09-26T01:34:01.195Z,99.00
2018-09-26T01:34:34.359Z,99.00
2018-09-26T01:35:07.753Z,99.00
2018-09-26T01:35:40.929Z,98.90
2018-09-26T01:36:14.135Z,98.90
2018-09-26T01:36:47.378Z,98.90
2018-09-26T01:37:20.531Z,99.00
2018-09-26T01:37:54.007Z,99.00
2018-09-26T01:38:27.154Z,99.00
2018-09-26T01:39:00.359Z,99.00
2018-09-26T01:39:33.564Z,99.10
2018-09-26T01:40:07.669Z,99.00
2018-09-26T01:40:40.848Z,99.00
2018-09-26T01:41:20.792Z,99.00
2018-09-26T01:41:54.002Z,99.00
2018-09-26T01:42:27.443Z,98.90
2018-09-26T01:43:00.635Z,98.90
2018-09-26T01:43:33.873Z,98.90
2018-09-26T01:44:07.324Z,98.90
2018-09-26T01:44:40.511Z,99.00
2018-09-26T01:45:13.710Z,99.10
2018-09-26T01:45:46.879Z,99.10
2018-09-26T01:46:20.078Z,99.20
2018-09-26T01:46:53.380Z,99.30
2018-09-26T01:47:26.599Z,99.30
2018-09-26T01:48:00.283Z,99.30
2018-09-26T01:48:33.549Z,99.40
2018-09-26T01:49:06.741Z,99.40
2018-09-26T01:49:40.015Z,99.50
2018-09-26T01:50:16.106Z,99.60
2018-09-26T01:50:49.347Z,99.60
2018-09-26T01:51:22.530Z,99.60
2018-09-26T01:51:55.988Z,99.50
2018-09-26T01:52:29.382Z,99.50
2018-09-26T01:53:02.578Z,99.50
2018-09-26T01:53:35.781Z,99.50
2018-09-26T01:54:40.018Z,99.50
2018-09-26T01:55:13.219Z,99.60
2018-09-26T01:55:46.388Z,99.60
2018-09-26T01:56:19.635Z,99.60
2018-09-26T01:56:52.814Z,99.70
2018-09-26T01:57:26.055Z,99.70
2018-09-26T01:57:59.257Z,99.70
2018-09-26T01:58:32.408Z,99.70
2018-09-26T01:59:05.624Z,99.70
2018-09-26T01:59:38.892Z,99.70
2018-09-26T02:00:12.051Z,99.60
2018-09-26T02:00:45.250Z,99.60
2018-09-26T02:01:18.402Z,99.50
2018-09-26T02:01:51.989Z,99.50
2018-09-26T02:02:25.329Z,99.50
2018-09-26T02:02:58.753Z,99.60
2018-09-26T02:03:31.898Z,99.50
2018-09-26T02:04:05.081Z,99.50
2018-09-26T02:04:38.345Z,99.50
2018-09-26T02:05:11.531Z,99.40
2018-09-26T02:05:44.702Z,99.40
2018-09-26T02:06:17.914Z,99.40
2018-09-26T02:06:51.078Z,99.50
2018-09-26T02:07:24.288Z,99.60
2018-09-26T02:07:57.517Z,99.60
2018-09-26T02:08:30.706Z,99.50
2018-09-26T02:09:05.942Z,99.50
2018-09-26T02:09:39.102Z,99.40
2018-09-26T02:10:12.483Z,99.40
2018-09-26T02:10:45.678Z,99.40
2018-09-26T02:11:18.960Z,99.40
2018-09-26T02:11:52.156Z,99.30
2018-09-26T02:12:25.442Z,99.40
2018-09-26T02:12:58.674Z,99.40
2018-09-26T02:13:31.896Z,99.40
2018-09-26T02:14:05.090Z,99.40
2018-09-26T02:14:38.250Z,99.40
2018-09-26T02:15:11.461Z,99.40
2018-09-26T02:15:44.676Z,99.50
2018-09-26T02:16:17.852Z,99.50
2018-09-26T02:16:51.033Z,99.40
2018-09-26T02:17:24.232Z,99.30
2018-09-26T02:17:57.419Z,99.30
2018-09-26T02:18:30.598Z,99.30
2018-09-26T02:19:03.851Z,99.40
2018-09-26T02:19:37.056Z,99.60
2018-09-26T02:20:10.272Z,99.90
2018-09-26T02:20:43.485Z,99.70
2018-09-26T02:21:17.206Z,99.70
2018-09-26T02:21:50.667Z,99.80
2018-09-26T02:22:23.842Z,99.80
2018-09-26T02:22:59.810Z,99.80
2018-09-26T02:23:39.603Z,99.70
2018-09-26T02:24:12.937Z,99.70
2018-09-26T02:24:46.288Z,99.70
2018-09-26T02:25:19.547Z,99.70
2018-09-26T02:25:52.809Z,99.70
2018-09-26T02:26:25.984Z,99.70
2018-09-26T02:26:59.414Z,99.70
2018-09-26T02:27:32.630Z,99.70
2018-09-26T02:28:05.804Z,99.60
2018-09-26T02:28:39.546Z,99.60
2018-09-26T02:29:13.366Z,99.70
2018-09-26T02:29:46.603Z,99.60
2018-09-26T02:30:19.780Z,99.50
2018-09-26T02:30:52.933Z,99.40
2018-09-26T02:31:26.121Z,99.50
2018-09-26T02:31:59.288Z,99.50
2018-09-26T02:32:32.465Z,99.60
2018-09-26T02:33:05.854Z,99.60
2018-09-26T02:33:39.009Z,99.80
2018-09-26T02:34:12.177Z,99.80
2018-09-26T02:34:45.338Z,99.80
2018-09-26T02:35:18.488Z,99.80
2018-09-26T02:35:51.673Z,99.80
2018-09-26T02:36:25.362Z,99.80
2018-09-26T02:36:58.582Z,99.80
2018-09-26T02:37:31.769Z,99.70
2018-09-26T02:38:05.202Z,99.70
2018-09-26T02:38:38.488Z,99.60
2018-09-26T02:39:11.659Z,99.60
2018-09-26T02:39:44.901Z,99.50
2018-09-26T02:40:18.107Z,99.40
2018-09-26T02:40:51.306Z,99.40
2018-09-26T02:41:24.485Z,99.40
2018-09-26T02:41:57.653Z,99.30
2018-09-26T02:42:30.854Z,99.30
2018-09-26T02:43:04.044Z,99.20
2018-09-26T02:43:37.264Z,99.20
2018-09-26T02:44:11.191Z,99.20
2018-09-26T02:44:44.355Z,99.20
2018-09-26T02:45:17.561Z,99.20
2018-09-26T02:45:50.760Z,99.20
2018-09-26T02:46:24.157Z,99.30
2018-09-26T02:46:57.470Z,99.30
2018-09-26T02:47:30.739Z,99.30
2018-09-26T02:48:04.021Z,99.30
2018-09-26T02:48:42.417Z,99.30
2018-09-26T02:49:15.630Z,99.40
2018-09-26T02:49:48.793Z,99.40
2018-09-26T02:50:21.980Z,99.40
2018-09-26T02:50:55.155Z,99.50
2018-09-26T02:51:28.486Z,99.60
2018-09-26T02:52:01.670Z,99.60
2018-09-26T02:52:35.079Z,99.70
2018-09-26T02:53:08.286Z,99.70
2018-09-26T02:53:41.456Z,99.70
2018-09-26T02:54:14.646Z,99.70
2018-09-26T02:54:47.839Z,99.60
2018-09-26T02:55:21.047Z,99.50
2018-09-26T02:55:54.274Z,99.40
2018-09-26T02:56:27.408Z,99.30
2018-09-26T02:57:00.778Z,99.30
2018-09-26T02:57:34.149Z,99.40
2018-09-26T02:58:08.289Z,99.40
2018-09-26T02:58:41.581Z,99.40
2018-09-26T02:59:14.938Z,99.40
2018-09-26T02:59:48.085Z,99.40
2018-09-26T03:00:21.272Z,99.40
2018-09-26T03:00:54.481Z,99.40
2018-09-26T03:01:27.676Z,99.50
2018-09-26T03:02:00.886Z,99.40
2018-09-26T03:02:34.182Z,99.40
2018-09-26T03:04:10.885Z,99.30
2018-09-26T03:04:44.040Z,99.60
2018-09-26T03:05:17.241Z,99.20
2018-09-26T03:05:51.040Z,99.20
2018-09-26T03:06:24.219Z,99.30
2018-09-26T03:06:57.596Z,99.40
2018-09-26T03:07:30.782Z,99.50
2018-09-26T03:08:04.177Z,99.50
2018-09-26T03:08:37.360Z,99.50
2018-09-26T03:09:10.933Z,99.50
2018-09-26T03:09:44.171Z,99.50
2018-09-26T03:10:17.939Z,99.50
2018-09-26T03:10:51.308Z,99.50
2018-09-26T03:11:24.415Z,99.60
2018-09-26T03:11:57.628Z,99.60
2018-09-26T03:12:30.832Z,99.60
2018-09-26T03:13:04.139Z,99.60
2018-09-26T03:13:37.978Z,99.60
2018-09-26T03:14:11.127Z,99.50
2018-09-26T03:14:44.371Z,99.60
2018-09-26T03:15:17.867Z,99.50
2018-09-26T03:15:51.747Z,99.60
2018-09-26T03:16:24.979Z,99.50
2018-09-26T03:16:58.189Z,99.40
2018-09-26T03:17:31.464Z,99.40
2018-09-26T03:18:04.588Z,99.40
2018-09-26T03:18:38.913Z,99.40
2018-09-26T03:19:12.148Z,99.50
2018-09-26T03:19:45.355Z,99.40
2018-09-26T03:20:18.509Z,99.40
2018-09-26T03:20:51.677Z,99.40
2018-09-26T03:21:24.901Z,99.30
2018-09-26T03:21:58.634Z,99.30
2018-09-26T03:22:31.859Z,99.40
2018-09-26T03:23:05.098Z,99.40
2018-09-26T03:23:38.728Z,99.60
2018-09-26T03:24:12.423Z,99.70
2018-09-26T03:24:45.641Z,99.80
2018-09-26T03:25:19.189Z,99.60
2018-09-26T03:25:52.428Z,99.50
2018-09-26T03:26:25.789Z,99.40
2018-09-26T03:26:59.014Z,99.30
2018-09-26T03:27:32.195Z,99.30
2018-09-26T03:28:05.657Z,99.40
2018-09-26T03:28:39.304Z,99.60
2018-09-26T03:29:12.445Z,99.30
2018-09-26T03:29:45.930Z,99.30
2018-09-26T03:30:19.136Z,99.30
2018-09-26T03:30:52.335Z,99.30
2018-09-26T03:31:25.779Z,99.20
2018-09-26T03:31:59.025Z,99.20
2018-09-26T03:32:32.212Z,99.20
2018-09-26T03:33:05.651Z,99.20
2018-09-26T03:33:39.047Z,99.10
2018-09-26T03:34:12.187Z,99.10
2018-09-26T03:34:45.377Z,99.20
2018-09-26T03:35:18.632Z,99.20
2018-09-26T03:35:51.917Z,99.20
2018-09-26T03:36:25.133Z,99.40
2018-09-26T03:36:58.311Z,99.10
2018-09-26T03:37:31.889Z,99.10
2018-09-26T03:38:05.099Z,99.10
2018-09-26T03:38:38.367Z,99.20
2018-09-26T03:39:11.655Z,99.20
2018-09-26T03:39:45.116Z,99.20
2018-09-26T03:40:18.335Z,99.20
2018-09-26T03:40:51.561Z,99.20
2018-09-26T03:41:24.818Z,99.20
2018-09-26T03:41:58.063Z,99.20
2018-09-26T03:42:31.307Z,99.20
2018-09-26T03:43:04.566Z,99.20
2018-09-26T03:43:37.946Z,99.20
2018-09-26T03:44:11.277Z,99.30
2018-09-26T03:44:44.536Z,99.30
2018-09-26T03:45:17.858Z,99.20
2018-09-26T03:45:51.190Z,99.20
2018-09-26T03:46:24.404Z,99.10
2018-09-26T03:46:57.816Z,99.20
2018-09-26T03:47:31.037Z,99.20
2018-09-26T03:48:04.245Z,99.20
2018-09-26T03:48:37.466Z,99.30
2018-09-26T03:49:10.715Z,99.20
2018-09-26T03:49:43.878Z,99.20
2018-09-26T03:50:17.106Z,99.20
2018-09-26T03:50:50.758Z,99.20
2018-09-26T03:51:23.984Z,99.20
2018-09-26T03:51:57.291Z,99.20
2018-09-26T03:52:30.554Z,99.20
2018-09-26T03:53:04.071Z,99.20
2018-09-26T03:53:37.265Z,99.30
2018-09-26T03:54:10.439Z,99.30
2018-09-26T03:54:43.623Z,99.40
2018-09-26T03:55:16.787Z,99.40
2018-09-26T03:55:50.121Z,99.60
2018-09-26T03:56:23.305Z,99.60
2018-09-26T03:56:56.502Z,99.50
2018-09-26T03:57:30.256Z,99.40
2018-09-26T03:58:03.632Z,99.40
2018-09-26T03:58:36.852Z,99.30
2018-09-26T03:59:10.075Z,99.20
2018-09-26T03:59:43.301Z,99.20
2018-09-26T04:00:16.690Z,99.20
2018-09-26T04:00:49.888Z,99.20
2018-09-26T04:01:23.079Z,99.30
2018-09-26T04:01:56.554Z,99.40
2018-09-26T04:02:29.803Z,99.40
2018-09-26T04:03:03.043Z,99.50
2018-09-26T04:03:36.566Z,99.50
2018-09-26T04:04:09.824Z,99.60
2018-09-26T04:04:43.077Z,99.60
2018-09-26T04:05:16.348Z,99.60
2018-09-26T04:05:49.623Z,99.60
2018-09-26T04:06:22.919Z,99.70
2018-09-26T04:06:56.160Z,99.70
2018-09-26T04:07:29.387Z,99.70
2018-09-26T04:08:02.597Z,99.60
2018-09-26T04:08:36.024Z,99.90
2018-09-26T04:09:10.938Z,99.70
2018-09-26T04:09:44.749Z,99.70
2018-09-26T04:10:18.057Z,99.60
2018-09-26T04:10:51.288Z,99.60
2018-09-26T04:11:31.027Z,99.60
2018-09-26T04:12:04.272Z,99.50
2018-09-26T04:12:37.632Z,99.50
2018-09-26T04:13:10.842Z,99.40
2018-09-26T04:13:44.618Z,99.30
2018-09-26T04:14:17.849Z,99.00
2018-09-26T04:14:51.005Z,99.30
2018-09-26T04:15:24.153Z,99.40
2018-09-26T04:15:57.350Z,99.50
2018-09-26T04:16:30.523Z,99.50
2018-09-26T04:17:03.758Z,99.50
2018-09-26T04:17:36.985Z,99.40
2018-09-26T04:18:10.362Z,99.50
2018-09-26T04:18:43.834Z,99.60
2018-09-26T04:19:17.029Z,99.70
2018-09-26T04:19:50.222Z,99.70
2018-09-26T04:20:23.457Z,99.80
2018-09-26T04:20:56.859Z,99.90
2018-09-26T04:21:30.021Z,99.80
2018-09-26T04:22:03.347Z,99.80
2018-09-26T04:22:36.525Z,99.80
2018-09-26T04:23:09.703Z,99.70
2018-09-26T04:23:42.889Z,99.50
2018-09-26T04:24:16.137Z,99.50
2018-09-26T04:24:49.482Z,99.20
2018-09-26T04:25:22.664Z,99.20
2018-09-26T04:25:56.276Z,99.10
2018-09-26T04:26:29.608Z,98.90
2018-09-26T04:27:02.977Z,98.90
2018-09-26T04:27:36.033Z,98.90
2018-09-26T04:28:09.461Z,99.20
2018-09-26T04:28:42.818Z,99.30
2018-09-26T04:29:16.155Z,99.60
2018-09-26T04:29:49.373Z,99.30
2018-09-26T04:30:22.710Z,99.30
2018-09-26T04:30:55.801Z,99.20
2018-09-26T04:31:28.986Z,99.20
2018-09-26T04:32:02.305Z,99.20
2018-09-26T04:32:35.861Z,99.30
2018-09-26T04:33:09.472Z,99.40
2018-09-26T04:33:42.591Z,99.40
2018-09-26T04:34:15.985Z,99.50
2018-09-26T04:34:49.409Z,99.40
2018-09-26T04:35:22.587Z,99.40
2018-09-26T04:35:55.946Z,99.30
2018-09-26T04:36:29.240Z,99.30
2018-09-26T04:37:03.314Z,99.40
2018-09-26T04:38:16.264Z,99.70
2018-09-26T04:38:49.744Z,99.90
2018-09-26T04:39:23.145Z,99.90
2018-09-26T04:39:56.299Z,99.90
2018-09-26T04:40:29.508Z,99.90
2018-09-26T04:41:02.780Z,99.90
2018-09-26T04:41:36.064Z,99.90
2018-09-26T04:42:09.448Z,99.90
2018-09-26T04:42:42.724Z,99.90
2018-09-26T04:43:16.005Z,99.90
2018-09-26T04:43:49.371Z,99.90
2018-09-26T04:44:22.569Z,99.90
2018-09-26T04:44:56.084Z,99.80
2018-09-26T04:45:30.256Z,99.80
2018-09-26T04:46:03.565Z,99.80
2018-09-26T04:46:37.715Z,99.90
2018-09-26T04:47:11.062Z,99.90
2018-09-26T04:47:44.294Z,99.90
2018-09-26T04:48:17.548Z,99.90
2018-09-26T04:48:58.808Z,99.90
2018-09-26T04:49:32.009Z,99.90
2018-09-26T04:50:06.286Z,99.90
2018-09-26T04:50:39.687Z,99.90
2018-09-26T04:51:12.856Z,99.90
2018-09-26T04:51:46.508Z,99.90
2018-09-26T04:52:19.706Z,99.90
2018-09-26T04:52:53.038Z,99.90
2018-09-26T04:53:26.604Z,99.90
2018-09-26T04:53:59.846Z,99.90
2018-09-26T04:54:33.084Z,99.90
2018-09-26T04:55:06.257Z,99.90
2018-09-26T04:55:39.570Z,99.90
2018-09-26T04:56:12.813Z,99.90
2018-09-26T04:56:45.985Z,99.90
2018-09-26T04:57:19.184Z,99.90
2018-09-26T04:57:52.497Z,99.90
2018-09-26T04:58:25.716Z,99.80
2018-09-26T04:58:58.922Z,99.80
2018-09-26T04:59:32.094Z,99.80
2018-09-26T05:00:05.473Z,99.90
2018-09-26T05:00:38.706Z,99.90
2018-09-26T05:01:11.926Z,99.90
2018-09-26T05:01:45.234Z,99.70
2018-09-26T05:02:18.725Z,99.30
2018-09-26T05:02:51.914Z,99.10
2018-09-26T05:03:25.318Z,99.20
2018-09-26T05:03:59.384Z,99.40
2018-09-26T05:04:32.783Z,99.40
2018-09-26T05:05:06.436Z,99.50
2018-09-26T05:05:39.951Z,99.50
2018-09-26T05:06:13.231Z,99.40
2018-09-26T05:06:46.912Z,99.40
2018-09-26T05:07:20.780Z,99.40
2018-09-26T05:07:54.188Z,99.40
2018-09-26T05:08:27.448Z,99.30
2018-09-26T05:09:00.624Z,99.20
2018-09-26T05:09:33.918Z,99.10
2018-09-26T05:10:08.177Z,99.10
2018-09-26T05:10:41.452Z,99.10
2018-09-26T05:11:14.653Z,99.20
2018-09-26T05:11:47.811Z,99.30
2018-09-26T05:12:21.306Z,99.40
2018-09-26T05:12:54.526Z,99.30
2018-09-26T05:13:27.722Z,99.30
2018-09-26T05:14:01.331Z,99.30
2018-09-26T05:14:34.696Z,99.40
2018-09-26T05:15:08.792Z,99.60
2018-09-26T05:15:42.309Z,99.30
2018-09-26T05:16:15.546Z,99.20
2018-09-26T05:16:48.769Z,99.20
2018-09-26T05:17:22.102Z,99.30
2018-09-26T05:17:56.433Z,99.40
2018-09-26T05:18:30.661Z,99.40
2018-09-26T05:19:04.040Z,99.30
2018-09-26T05:19:37.247Z,99.20
2018-09-26T05:20:10.422Z,99.20
2018-09-26T05:20:43.591Z,99.40
2018-09-26T05:21:16.767Z,99.60
2018-09-26T05:21:49.943Z,99.60
2018-09-26T05:22:23.151Z,99.50
2018-09-26T05:22:56.673Z,99.40
2018-09-26T05:23:30.342Z,99.30
2018-09-26T05:24:04.528Z,99.40
2018-09-26T05:24:37.865Z,99.30
2018-09-26T05:25:11.334Z,99.30
2018-09-26T05:25:44.509Z,99.30
2018-09-26T05:26:17.948Z,99.30
2018-09-26T05:26:51.257Z,99.30
2018-09-26T05:27:24.521Z,99.40
2018-09-26T05:27:57.672Z,99.50
2018-09-26T05:28:30.942Z,99.60
2018-09-26T05:29:04.092Z,99.40
2018-09-26T05:29:37.438Z,99.70
2018-09-26T05:30:11.173Z,99.40
2018-09-26T05:30:44.423Z,99.50
2018-09-26T05:31:17.692Z,99.50
2018-09-26T05:31:51.685Z,99.60
2018-09-26T05:32:24.946Z,99.70
2018-09-26T05:32:58.159Z,99.70
2018-09-26T05:33:31.521Z,99.80
2018-09-26T05:34:05.033Z,99.70
2018-09-26T05:34:38.532Z,99.70
2018-09-26T05:35:11.981Z,99.70
2018-09-26T05:35:45.436Z,99.70
2018-09-26T05:36:18.755Z,99.80
2018-09-26T05:36:52.509Z,99.70
2018-09-26T05:37:25.842Z,99.50
2018-09-26T05:37:59.228Z,99.40
2018-09-26T05:38:32.590Z,99.30
2018-09-26T05:39:08.196Z,99.30
2018-09-26T05:39:41.700Z,99.50
2018-09-26T05:40:15.414Z,99.40
2018-09-26T05:40:48.875Z,99.40
2018-09-26T05:41:22.023Z,99.60
2018-09-26T05:41:55.710Z,99.70
2018-09-26T05:42:29.253Z,99.50
2018-09-26T05:43:03.228Z,99.60
2018-09-26T05:43:36.468Z,99.70
2018-09-26T05:44:09.883Z,99.70
2018-09-26T05:44:43.477Z,99.90
2018-09-26T05:45:17.169Z,99.90
2018-09-26T05:45:51.177Z,99.90
2018-09-26T05:46:25.188Z,99.90
2018-09-26T05:46:58.726Z,99.80
2018-09-26T05:47:32.243Z,99.70
2018-09-26T05:48:05.922Z,99.70
2018-09-26T05:48:39.547Z,99.80
2018-09-26T05:49:12.802Z,99.70
2018-09-26T05:49:46.073Z,99.80
2018-09-26T05:50:19.547Z,99.90
2018-09-26T05:50:53.140Z,99.80
2018-09-26T05:51:26.328Z,99.70
2018-09-26T05:51:59.694Z,99.70
2018-09-26T05:52:33.019Z,99.50
2018-09-26T05:53:06.348Z,99.30
2018-09-26T05:53:39.849Z,99.20
2018-09-26T05:54:13.266Z,99.20
2018-09-26T05:54:46.643Z,99.00
2018-09-26T05:55:20.095Z,99.00
2018-09-26T05:55:53.576Z,99.10
2018-09-26T05:56:26.895Z,99.30
2018-09-26T05:57:00.345Z,99.50
2018-09-26T05:57:33.693Z,99.50
2018-09-26T05:58:07.354Z,99.50
2018-09-26T05:58:40.920Z,99.30
2018-09-26T05:59:14.329Z,99.50
2018-09-26T05:59:47.643Z,99.60
2018-09-26T06:00:20.948Z,99.60
2018-09-26T06:00:54.471Z,99.50
2018-09-26T06:01:28.176Z,99.70
2018-09-26T06:02:01.490Z,99.40
2018-09-26T06:02:35.193Z,99.30
2018-09-26T06:03:08.598Z,99.20
2018-09-26T06:03:41.973Z,99.30
2018-09-26T06:04:15.728Z,99.30
2018-09-26T06:04:50.032Z,99.40
2018-09-26T06:05:23.223Z,99.30
2018-09-26T06:05:56.462Z,99.20
2018-09-26T06:06:29.810Z,99.00
2018-09-26T06:07:03.396Z,98.90
2018-09-26T06:07:37.839Z,98.90
2018-09-26T06:08:12.118Z,98.80
2018-09-26T06:08:45.248Z,99.00
2018-09-26T06:09:18.637Z,98.80
2018-09-26T06:09:51.831Z,98.80
2018-09-26T06:10:25.285Z,98.80
2018-09-26T06:10:58.578Z,98.60
2018-09-26T06:11:32.092Z,98.40
2018-09-26T06:12:05.541Z,98.40
2018-09-26T06:12:38.962Z,98.20
2018-09-26T06:13:12.169Z,98.10
2018-09-26T06:13:45.629Z,97.80
2018-09-26T06:14:18.870Z,97.60
2018-09-26T06:14:53.193Z,97.60
2018-09-26T06:15:26.459Z,97.60
2018-09-26T06:16:00.885Z,97.50
2018-09-26T06:16:34.829Z,97.70
2018-09-26T06:17:08.893Z,97.70
2018-09-26T06:17:42.130Z,97.60
2018-09-26T06:18:15.486Z,97.60
2018-09-26T06:18:48.689Z,97.50
2018-09-26T06:19:21.977Z,97.30
2018-09-26T06:19:57.545Z,97.30
2018-09-26T06:20:30.820Z,97.30
2018-09-26T06:21:04.682Z,97.40
2018-09-26T06:21:38.066Z,97.50
2018-09-26T06:22:12.087Z,97.60
2018-09-26T06:22:46.098Z,97.50
2018-09-26T06:23:22.582Z,97.40
2018-09-26T06:23:55.988Z,97.40
2018-09-26T06:24:29.197Z,97.40
2018-09-26T06:25:02.361Z,97.40
2018-09-26T06:25:35.601Z,97.20
2018-09-26T06:26:08.966Z,97.40
2018-09-26T06:26:42.114Z,97.10
2018-09-26T06:27:16.164Z,96.60
2018-09-26T06:27:50.355Z,96.50
2018-09-26T06:28:23.643Z,96.50
2018-09-26T06:28:56.827Z,96.50
2018-09-26T06:29:30.209Z,96.50
2018-09-26T06:30:03.450Z,96.40
2018-09-26T06:30:36.655Z,96.30
2018-09-26T06:31:10.883Z,96.20
2018-09-26T06:31:44.134Z,96.50
2018-09-26T06:32:18.384Z,96.00
2018-09-26T06:32:51.680Z,96.10
2018-09-26T06:33:24.965Z,96.00
2018-09-26T06:33:59.082Z,95.80
2018-09-26T06:34:32.507Z,95.60
2018-09-26T06:35:05.878Z,95.00
2018-09-26T06:35:40.022Z,94.90
2018-09-26T06:36:13.278Z,94.80
2018-09-26T06:36:46.549Z,95.30
2018-09-26T06:37:20.178Z,95.00
2018-09-26T06:37:54.487Z,95.00
2018-09-26T06:38:28.028Z,94.80
2018-09-26T06:39:01.375Z,94.90
2018-09-26T06:39:34.697Z,94.80
2018-09-26T06:40:07.939Z,94.70
2018-09-26T06:40:41.572Z,94.60
2018-09-26T06:41:14.782Z,94.60
2018-09-26T06:41:49.084Z,94.30
2018-09-26T06:42:22.610Z,94.50
2018-09-26T06:42:56.159Z,94.50
2018-09-26T06:43:29.394Z,94.20
2018-09-26T06:44:02.549Z,94.00
2018-09-26T06:44:35.781Z,94.10
2018-09-26T06:45:09.536Z,94.00
2018-09-26T06:45:43.051Z,93.90
2018-09-26T06:46:16.364Z,94.20
2018-09-26T06:46:49.765Z,93.80
2018-09-26T06:47:23.473Z,93.70
2018-09-26T06:47:56.773Z,93.80
2018-09-26T06:48:31.084Z,94.10
2018-09-26T06:49:04.243Z,94.00
2018-09-26T06:49:37.462Z,94.00
2018-09-26T06:50:10.971Z,94.30
2018-09-26T06:50:44.260Z,94.40
2018-09-26T06:51:17.859Z,94.50
2018-09-26T06:51:51.198Z,94.50
2018-09-26T06:52:24.723Z,94.20
2018-09-26T06:52:59.738Z,94.10
2018-09-26T06:53:33.271Z,94.10
2018-09-26T06:54:06.504Z,94.20
2018-09-26T06:54:39.840Z,94.30
2018-09-26T06:55:13.198Z,94.40
2018-09-26T06:55:46.582Z,94.30
2018-09-26T06:56:20.277Z,94.40
2018-09-26T06:56:53.613Z,94.60
2018-09-26T06:57:27.080Z,94.80
2018-09-26T06:58:00.339Z,94.70
2018-09-26T06:58:33.557Z,94.30
2018-09-26T06:59:07.037Z,94.30
2018-09-26T06:59:40.215Z,94.50
2018-09-26T07:00:13.543Z,94.50
2018-09-26T07:00:46.852Z,94.90
2018-09-26T07:01:20.228Z,94.70
2018-09-26T07:01:54.270Z,94.80
2018-09-26T07:02:27.971Z,94.80
2018-09-26T07:03:01.355Z,94.50
2018-09-26T07:03:34.743Z,94.50
2018-09-26T07:04:09.293Z,94.30
2018-09-26T07:04:42.739Z,94.10
2018-09-26T07:05:15.958Z,94.50
2018-09-26T07:05:49.129Z,94.60
2018-09-26T07:06:23.006Z,94.60
2018-09-26T07:06:58.535Z,94.60
2018-09-26T07:07:35.324Z,94.50
2018-09-26T07:08:08.551Z,94.40
2018-09-26T07:08:43.108Z,94.70
2018-09-26T07:09:17.887Z,94.70
2018-09-26T07:09:51.156Z,94.60
2018-09-26T07:10:24.471Z,94.50
2018-09-26T07:10:57.658Z,94.70
2018-09-26T07:11:31.158Z,94.80
2018-09-26T07:12:04.514Z,95.20
2018-09-26T07:12:37.775Z,94.80
2018-09-26T07:13:10.998Z,94.60
2018-09-26T07:13:44.619Z,94.50
2018-09-26T07:14:18.996Z,94.60
2018-09-26T07:14:52.946Z,94.80